^^
Saratoga-Weather Station Historical Data
Daily Summary for September 21, 2021 Units:  English    Metric   Both
Daily Weekly Monthly Yearly Custom
  High: Low: Average:
Temperature: 64.8 °F 53.4 °F 57 °F
Dew Point: 52.5 °F 47.3 °F 50.7 °F
Humidity: 93% 55% 81%
Wind Speed: 8mph 0mph 1mph
Wind Gust: 11mph - -
Wind- - SSE
Pressure: 30.4 in 30.2 in -
Precipitation: 0 in    
Historical Graphs
 
 
Tabular Data for September 21, 2021
Time Temperature Dew Point Pressure Wind Wind Speed Wind Gust Humidity Rainfall Rate (Hourly) solar
00:02 55.9 °F 52.5 °F 30.2 in Calm     88% 0 in 0 W/m2
00:07 55.8 °F 52.3 °F 30.2 in Calm     88% 0 in 0 W/m2
00:12 55.6 °F 52.3 °F 30.2 in ESE 0.9 mph 1 mph 89% 0 in 0 W/m2
00:30 55 °F 52.5 °F 30.2 in Calm     91% 0 in 0 W/m2
00:35 55 °F 52.5 °F 30.2 in Calm     91% 0 in 0 W/m2
00:40 55 °F 52.5 °F 30.2 in Calm     91% 0 in 0 W/m2
00:45 54.9 °F 52.3 °F 30.2 in Calm     91% 0 in 0 W/m2
00:50 54.7 °F 52.2 °F 30.2 in Calm     91% 0 in 0 W/m2
00:55 54.7 °F 52.2 °F 30.2 in Calm     91% 0 in 0 W/m2
01:01 54.5 °F 52 °F 30.2 in Calm     91% 0 in 0 W/m2
01:06 54.5 °F 52 °F 30.2 in ESE 0.9 mph 1 mph 91% 0 in 0 W/m2
01:11 54.7 °F 52.3 °F 30.2 in ESE 0.9 mph 1 mph 92% 0 in 0 W/m2
01:16 54.7 °F 52.3 °F 30.2 in Calm   1 mph 92% 0 in 0 W/m2
01:21 54.9 °F 52.3 °F 30.2 in Calm     91% 0 in 0 W/m2
01:26 54.9 °F 52.3 °F 30.2 in ESE 0.9 mph 1 mph 91% 0 in 0 W/m2
01:31 54.9 °F 52.3 °F 30.2 in Calm     91% 0 in 0 W/m2
01:36 54.9 °F 52.3 °F 30.2 in Calm     91% 0 in 0 W/m2
01:41 54.7 °F 52.2 °F 30.2 in Calm     91% 0 in 0 W/m2
01:46 54.7 °F 51.8 °F 30.2 in Calm     90% 0 in 0 W/m2
01:51 54.5 °F 51.6 °F 30.2 in Calm     90% 0 in 0 W/m2
01:56 54.3 °F 51.4 °F 30.2 in Calm     90% 0 in 0 W/m2
02:01 54.1 °F 51.3 °F 30.2 in Calm     90% 0 in 0 W/m2
02:06 54 °F 51.4 °F 30.2 in Calm     91% 0 in 0 W/m2
02:11 53.8 °F 51.3 °F 30.2 in Calm     91% 0 in 0 W/m2
02:16 53.6 °F 51.1 °F 30.2 in Calm     91% 0 in 0 W/m2
02:21 53.4 °F 50.9 °F 30.2 in Calm     91% 0 in 0 W/m2
02:40 53.8 °F 51.8 °F 30.2 in Calm     93% 0 in 0 W/m2
02:45 54 °F 52 °F 30.2 in Calm     93% 0 in 0 W/m2
02:50 54 °F 52 °F 30.2 in Calm     93% 0 in 0 W/m2
02:55 54.1 °F 51.8 °F 30.2 in Calm     92% 0 in 0 W/m2
03:00 54.1 °F 51.8 °F 30.2 in Calm     92% 0 in 0 W/m2
03:05 54.1 °F 51.8 °F 30.2 in Calm     92% 0 in 0 W/m2
03:10 54.1 °F 51.8 °F 30.2 in ESE 0.9 mph 1 mph 92% 0 in 0 W/m2
03:28 54.1 °F 51.6 °F 30.2 in Calm     91% 0 in 0 W/m2
03:33 54.1 °F 51.6 °F 30.2 in Calm     91% 0 in 0 W/m2
03:38 54 °F 51.4 °F 30.2 in Calm     91% 0 in 0 W/m2
03:44 54 °F 51.4 °F 30.2 in Calm     91% 0 in 0 W/m2
03:49 54 °F 51.4 °F 30.2 in ESE 0.9 mph 1 mph 91% 0 in 0 W/m2
03:54 54 °F 51.4 °F 30.2 in Calm     91% 0 in 0 W/m2
03:59 53.8 °F 51.3 °F 30.2 in Calm     91% 0 in 0 W/m2
04:04 53.8 °F 51.3 °F 30.2 in Calm     91% 0 in 0 W/m2
04:09 53.8 °F 51.3 °F 30.2 in Calm     91% 0 in 0 W/m2
04:14 53.6 °F 51.1 °F 30.2 in Calm     91% 0 in 0 W/m2
04:19 53.4 °F 50.5 °F 30.2 in Calm     90% 0 in 0 W/m2
04:24 53.4 °F 50.9 °F 30.2 in Calm     91% 0 in 0 W/m2
04:29 53.4 °F 50.9 °F 30.2 in Calm     91% 0 in 0 W/m2
04:34 53.4 °F 50.9 °F 30.2 in ESE 0.9 mph 1 mph 91% 0 in 0 W/m2
04:39 53.6 °F 51.1 °F 30.2 in Calm     91% 0 in 0 W/m2
04:44 53.6 °F 51.1 °F 30.2 in Calm     91% 0 in 0 W/m2
04:49 53.8 °F 51.3 °F 30.2 in Calm     91% 0 in 0 W/m2
04:54 53.8 °F 51.3 °F 30.2 in Calm     91% 0 in 0 W/m2
04:59 53.8 °F 51.3 °F 30.2 in Calm     91% 0 in 0 W/m2
05:04 53.8 °F 50.9 °F 30.2 in Calm     90% 0 in 0 W/m2
05:09 53.6 °F 50.7 °F 30.2 in Calm     90% 0 in 0 W/m2
05:14 53.6 °F 50.7 °F 30.2 in Calm     90% 0 in 0 W/m2
05:19 53.8 °F 51.3 °F 30.2 in Calm     91% 0 in 0 W/m2
05:24 53.6 °F 51.1 °F 30.2 in Calm     91% 0 in 0 W/m2
05:29 53.6 °F 51.1 °F 30.2 in Calm     91% 0 in 0 W/m2
05:34 53.6 °F 51.1 °F 30.2 in Calm     91% 0 in 0 W/m2
05:39 53.4 °F 50.9 °F 30.2 in Calm     91% 0 in 0 W/m2
05:44 53.4 °F 50.9 °F 30.2 in Calm     91% 0 in 0 W/m2
05:49 53.6 °F 51.3 °F 30.2 in Calm     92% 0 in 0 W/m2
05:54 53.8 °F 51.4 °F 30.2 in Calm     92% 0 in 0 W/m2
05:59 53.8 °F 51.4 °F 30.2 in Calm   1 mph 92% 0 in 0 W/m2
06:04 54 °F 51.6 °F 30.2 in Calm     92% 0 in 0 W/m2
06:09 54 °F 51.6 °F 30.2 in Calm     92% 0 in 0 W/m2
06:14 54.1 °F 51.8 °F 30.2 in Calm   2 mph 92% 0 in 0 W/m2
06:19 54.1 °F 51.8 °F 30.2 in Calm     92% 0 in 0 W/m2
06:40 54.1 °F 51.8 °F 30.3 in Calm     92% 0 in 0 W/m2
06:45 54.1 °F 51.8 °F 30.3 in Calm     92% 0 in 0 W/m2
06:50 54.1 °F 51.8 °F 30.3 in Calm     92% 0 in 0 W/m2
06:55 54 °F 51.6 °F 30.3 in Calm   2 mph 92% 0 in 0 W/m2
07:00 54 °F 51.6 °F 30.3 in Calm     92% 0 in 0 W/m2
07:05 54.1 °F 51.8 °F 30.3 in Calm   2 mph 92% 0 in 0 W/m2
07:10 54 °F 51.6 °F 30.3 in Calm   1 mph 92% 0 in 0 W/m2
07:15 54.1 °F 51.6 °F 30.3 in Calm   1 mph 91% 0 in 0 W/m2
07:20 54.1 °F 51.6 °F 30.3 in Calm   2 mph 91% 0 in 0 W/m2
07:25 54 °F 51.4 °F 30.3 in Calm   1 mph 91% 0 in 0 W/m2
07:30 54 °F 51.4 °F 30.3 in Calm   2 mph 91% 0 in 7 W/m2
07:35 54 °F 51.4 °F 30.3 in NE 0.9 mph 2 mph 91% 0 in 9 W/m2
07:40 54 °F 51.1 °F 30.3 in Calm   1 mph 90% 0 in 12 W/m2
07:45 54 °F 51.1 °F 30.3 in Calm   1 mph 90% 0 in 16 W/m2
07:50 54 °F 51.4 °F 30.3 in Calm     91% 0 in 19 W/m2
07:55 54 °F 51.4 °F 30.3 in Calm   2 mph 91% 0 in 21 W/m2
08:00 54 °F 51.4 °F 30.3 in NNW 0.9 mph 3 mph 91% 0 in 21 W/m2
08:05 54.1 °F 51.3 °F 30.3 in Calm   1 mph 90% 0 in 30 W/m2
08:10 54.1 °F 51.3 °F 30.3 in SSE 2 mph 3 mph 90% 0 in 26 W/m2
08:15 54.1 °F 51.3 °F 30.3 in Calm   2 mph 90% 0 in 32 W/m2
08:20 54.3 °F 51.1 °F 30.3 in Calm     89% 0 in 40 W/m2
08:25 54.3 °F 51.1 °F 30.3 in NW 0.9 mph 1 mph 89% 0 in 53 W/m2
08:30 54.5 °F 51.3 °F 30.3 in Calm     89% 0 in 62 W/m2
08:36 54.5 °F 51.3 °F 30.3 in WNW 0.9 mph 4 mph 89% 0 in 63 W/m2
08:41 54.7 °F 51.4 °F 30.3 in Calm     89% 0 in 72 W/m2
08:46 54.9 °F 51.4 °F 30.3 in Calm   2 mph 88% 0 in 79 W/m2
08:51 54.9 °F 51.4 °F 30.3 in East 0.9 mph 2 mph 88% 0 in 88 W/m2
08:56 55 °F 51.3 °F 30.3 in Calm   3 mph 87% 0 in 90 W/m2
09:01 55 °F 51.3 °F 30.3 in Calm   1 mph 87% 0 in 77 W/m2
09:06 55.2 °F 51.4 °F 30.3 in Calm   2 mph 87% 0 in 169 W/m2
09:11 55.4 °F 51.6 °F 30.3 in ENE 0.9 mph 1 mph 87% 0 in 144 W/m2
09:16 55.6 °F 51.8 °F 30.3 in Calm   1 mph 87% 0 in 139 W/m2
09:21 55.9 °F 51.8 °F 30.3 in NE 2 mph 3 mph 86% 0 in 232 W/m2
09:26 56.1 °F 52 °F 30.3 in Calm   2 mph 86% 0 in 137 W/m2
09:45 56.5 °F 51.4 °F 30.3 in North 2.9 mph 3 mph 83% 0 in 139 W/m2
09:50 56.5 °F 51.1 °F 30.3 in East 2 mph 5 mph 82% 0 in 155 W/m2
09:55 56.7 °F 51.3 °F 30.3 in Calm   3 mph 82% 0 in 165 W/m2
10:00 56.8 °F 51.1 °F 30.3 in North 2 mph 5 mph 81% 0 in 181 W/m2
10:05 57 °F 50.9 °F 30.3 in Calm   3 mph 80% 0 in 188 W/m2
10:10 57.2 °F 51.1 °F 30.3 in NNE 2 mph 4 mph 80% 0 in 190 W/m2
10:15 57.4 °F 50.9 °F 30.3 in ENE 2.9 mph 3 mph 79% 0 in 380 W/m2
10:20 57.7 °F 50.9 °F 30.3 in ENE 2.9 mph 5 mph 78% 0 in 387 W/m2
10:25 58.3 °F 51.4 °F 30.3 in NE 0.9 mph 6 mph 78% 0 in 403 W/m2
10:30 58.6 °F 51.4 °F 30.3 in ENE 2.9 mph 3 mph 77% 0 in 420 W/m2
10:35 58.8 °F 50.9 °F 30.3 in East 6 mph 6 mph 75% 0 in 427 W/m2
10:40 59 °F 50.7 °F 30.3 in ENE 2.9 mph 6 mph 74% 0 in 436 W/m2
10:45 59.2 °F 50.9 °F 30.3 in Calm   2 mph 74% 0 in 439 W/m2
10:50 59.4 °F 51.4 °F 30.3 in ENE 2 mph 3 mph 75% 0 in 480 W/m2
10:55 59.7 °F 51.1 °F 30.3 in NE 2.9 mph 3 mph 73% 0 in 462 W/m2
11:00 60.1 °F 51.1 °F 30.3 in Calm   3 mph 72% 0 in 468 W/m2
11:05 60.3 °F 51.3 °F 30.3 in ENE 2 mph 4 mph 72% 0 in 483 W/m2
11:10 60.3 °F 51.3 °F 30.3 in Calm   4 mph 72% 0 in 504 W/m2
11:15 60.4 °F 51.1 °F 30.3 in East 2.9 mph 7 mph 71% 0 in 497 W/m2
11:20 60.4 °F 50.5 °F 30.3 in East 0.9 mph 7 mph 70% 0 in 561 W/m2
11:25 60.8 °F 50.2 °F 30.3 in ENE 4 mph 6 mph 68% 0 in 146 W/m2
11:30 60.6 °F 49.6 °F 30.3 in SSE 0.9 mph 7 mph 67% 0 in 550 W/m2
11:35 61 °F 50.4 °F 30.3 in Calm   5 mph 68% 0 in 485 W/m2
11:40 61.2 °F 49.6 °F 30.3 in NE 2.9 mph 4 mph 66% 0 in 584 W/m2
11:45 61.3 °F 49.5 °F 30.3 in WNW 2.9 mph 4 mph 65% 0 in 550 W/m2
11:50 61.5 °F 49.6 °F 30.3 in East 0.9 mph 4 mph 65% 0 in 563 W/m2
11:55 62.1 °F 49.8 °F 30.3 in Calm   3 mph 64% 0 in 577 W/m2
12:00 62.2 °F 48.6 °F 30.4 in ESE 6.9 mph 7 mph 61% 0 in 573 W/m2
12:05 62.4 °F 48.7 °F 30.4 in NE 2 mph 3 mph 61% 0 in 575 W/m2
12:10 62.8 °F 48.7 °F 30.4 in NE 2.9 mph 11 mph 60% 0 in 585 W/m2
12:15 63 °F 49.3 °F 30.4 in Calm   7 mph 61% 0 in 619 W/m2
12:20 63 °F 48 °F 30.4 in NNW 4 mph 8 mph 58% 0 in 661 W/m2
12:25 62.6 °F 48.6 °F 30.4 in NE 2.9 mph 6 mph 60% 0 in 179 W/m2
12:45 62.4 °F 47.8 °F 30.3 in ESE 6.9 mph 7 mph 59% 0 in 647 W/m2
12:50 63.1 °F 48.6 °F 30.3 in NE 8 mph 8 mph 59% 0 in 654 W/m2
12:56 63.5 °F 48 °F 30.3 in NW 0.9 mph 4 mph 57% 0 in 668 W/m2
13:01 63.9 °F 48.7 °F 30.3 in ESE 4 mph 7 mph 58% 0 in 664 W/m2
13:06 64.2 °F 48.2 °F 30.3 in NE 2 mph 6 mph 56% 0 in 680 W/m2
13:11 64.6 °F 48 °F 30.3 in NNW 2 mph 5 mph 55% 0 in 694 W/m2
13:16 64.2 °F 47.7 °F 30.3 in NNE 0.9 mph 6 mph 55% 0 in 573 W/m2
13:21 63.9 °F 48.4 °F 30.3 in North 2 mph 4 mph 57% 0 in 121 W/m2
13:26 63.7 °F 48.2 °F 30.3 in North 4 mph 4 mph 57% 0 in 686 W/m2
13:31 63.7 °F 48.2 °F 30.3 in North 0.9 mph 5 mph 57% 0 in 686 W/m2
13:36 64 °F 48.6 °F 30.3 in WNW 2 mph 2 mph 57% 0 in 526 W/m2
13:41 63.9 °F 47.8 °F 30.3 in NW 2 mph 7 mph 56% 0 in 181 W/m2
13:46 63.3 °F 47.8 °F 30.3 in NW 4.9 mph 8 mph 57% 0 in 666 W/m2
13:51 63.5 °F 48.4 °F 30.3 in ESE 2.9 mph 4 mph 58% 0 in 712 W/m2
13:56 63.7 °F 48.6 °F 30.3 in SE 0.9 mph 4 mph 58% 0 in 710 W/m2
14:01 63.9 °F 47.8 °F 30.3 in East 2 mph 7 mph 56% 0 in 721 W/m2
14:06 64 °F 47.5 °F 30.3 in WNW 4 mph 4 mph 55% 0 in 664 W/m2
14:11 63.9 °F 47.3 °F 30.3 in NW 2.9 mph 6 mph 55% 0 in 684 W/m2
14:16 63.9 °F 47.3 °F 30.4 in West 0.9 mph 4 mph 55% 0 in 527 W/m2
14:21 63.5 °F 47.5 °F 30.3 in North 2 mph 4 mph 56% 0 in 647 W/m2
14:26 63.3 °F 47.8 °F 30.4 in NNW 4.9 mph 7 mph 57% 0 in 570 W/m2
14:31 63.5 °F 48.4 °F 30.3 in NW 0.9 mph 3 mph 58% 0 in 605 W/m2
14:36 63.9 °F 48.4 °F 30.4 in WNW 2 mph 6 mph 57% 0 in 585 W/m2
14:41 64 °F 48.6 °F 30.3 in WNW 4 mph 7 mph 57% 0 in 547 W/m2
14:57 64.6 °F 48 °F 30.3 in North 0.9 mph 7 mph 55% 0 in 603 W/m2
15:02 64.8 °F 48.2 °F 30.3 in North 2.9 mph 7 mph 55% 0 in 543 W/m2
15:07 64.6 °F 48 °F 30.3 in NE 2.9 mph 4 mph 55% 0 in 482 W/m2
15:12 64.8 °F 48.2 °F 30.3 in Calm   4 mph 55% 0 in 541 W/m2
Juneau County Weather
Compliments of Weather Underground - 2 mb